Time;durP1;ratioP1;P1;durP2;ratioP2;P2;SDS_P1;SDS_P2;PMS_P1;PMS_P2;Temp;Humidity;BMP_temperature;BMP_pressure;BME280_temperature;BME280_humidity;BME280_pressure;Samples;Min_cycle;Max_cycle;Signal;HPM_P1;HPM_P2
2024/02/27 00:01:53;;;;;;;14.02;5.22;;;3.60;99.90;;;;;;5024730;28;20207;-63
2024/02/27 00:04:19;;;;;;;8.68;5.10;;;3.60;99.90;;;;;;5023729;28;20196;-66
2024/02/27 00:06:49;;;;;;;11.88;5.07;;;3.60;99.90;;;;;;5020103;28;20278;-65
2024/02/27 00:09:18;;;;;;;9.18;5.20;;;3.60;99.90;;;;;;5022889;28;20215;-65
2024/02/27 00:11:44;;;;;;;11.98;5.38;;;3.60;99.90;;;;;;5024426;28;20220;-65
2024/02/27 00:14:11;;;;;;;9.35;5.03;;;3.50;99.90;;;;;;5022161;28;20192;-64
2024/02/27 00:16:37;;;;;;;11.15;5.30;;;3.50;99.90;;;;;;5024053;28;20195;-65
2024/02/27 00:19:03;;;;;;;11.05;5.65;;;3.50;99.90;;;;;;5024302;28;20635;-65
2024/02/27 00:21:29;;;;;;;15.13;5.60;;;3.50;99.90;;;;;;5024603;28;20192;-64
2024/02/27 00:23:55;;;;;;;12.70;5.70;;;3.50;99.90;;;;;;5023366;28;20184;-63
2024/02/27 00:26:20;;;;;;;11.75;5.97;;;3.50;99.90;;;;;;5023730;28;20234;-66
2024/02/27 00:28:46;;;;;;;17.45;6.07;;;3.40;99.90;;;;;;5024184;28;20192;-65
2024/02/27 00:31:12;;;;;;;11.18;5.93;;;3.50;99.90;;;;;;5023866;28;20188;-65
2024/02/27 00:33:37;;;;;;;20.00;6.53;;;3.40;99.90;;;;;;5038447;28;20275;-65
2024/02/27 00:36:03;;;;;;;14.15;6.43;;;3.50;99.90;;;;;;5023603;28;20203;-65
2024/02/27 00:38:29;;;;;;;12.82;6.13;;;3.40;99.90;;;;;;5023860;28;20234;-64
2024/02/27 00:40:55;;;;;;;11.07;6.03;;;3.40;99.90;;;;;;5024405;28;20223;-66
2024/02/27 00:43:21;;;;;;;16.88;6.20;;;3.40;99.90;;;;;;5023382;28;20224;-66
2024/02/27 00:45:47;;;;;;;17.42;6.70;;;3.40;99.90;;;;;;5023650;28;20212;-63
2024/02/27 00:48:12;;;;;;;13.40;6.90;;;3.40;99.90;;;;;;5023596;28;20199;-64
2024/02/27 00:50:39;;;;;;;12.50;6.63;;;3.40;99.90;;;;;;5023379;28;20225;-65
2024/02/27 00:53:06;;;;;;;16.10;7.22;;;3.40;99.90;;;;;;5023033;28;20192;-64
2024/02/27 00:55:32;;;;;;;15.15;6.80;;;3.40;99.90;;;;;;5023203;28;20191;-64
2024/02/27 00:57:58;;;;;;;11.48;6.47;;;3.40;99.90;;;;;;5023655;28;20202;-64
2024/02/27 01:00:24;;;;;;;16.55;7.45;;;3.40;99.90;;;;;;5022847;28;20191;-64
2024/02/27 01:02:49;;;;;;;14.05;7.45;;;3.40;99.90;;;;;;5023313;28;20284;-64
2024/02/27 01:05:15;;;;;;;18.65;7.80;;;3.40;99.90;;;;;;5023623;28;20331;-65
2024/02/27 01:07:42;;;;;;;21.52;7.78;;;3.40;99.90;;;;;;5023604;28;20496;-63
2024/02/27 01:10:08;;;;;;;15.45;7.45;;;3.40;99.90;;;;;;5023046;28;20192;-64
2024/02/27 01:12:34;;;;;;;13.35;7.93;;;3.40;99.90;;;;;;5022738;28;20188;-64
2024/02/27 01:15:00;;;;;;;19.73;8.68;;;3.40;99.90;;;;;;5023204;28;20202;-63
2024/02/27 01:17:25;;;;;;;18.05;8.15;;;3.40;99.90;;;;;;5022873;28;20203;-64
2024/02/27 01:19:52;;;;;;;17.80;8.60;;;3.40;99.90;;;;;;5023265;28;20250;-65
2024/02/27 01:22:35;;;;;;;19.73;8.50;;;3.40;99.90;;;;;;5022244;28;20491;-65
2024/02/27 01:25:01;;;;;;;19.05;9.13;;;3.30;99.90;;;;;;5022728;28;20286;-65
2024/02/27 01:27:29;;;;;;;22.02;9.57;;;3.40;99.90;;;;;;5022670;28;20660;-65
2024/02/27 01:29:56;;;;;;;21.88;10.13;;;3.40;99.90;;;;;;5022581;28;20203;-64
2024/02/27 01:32:22;;;;;;;17.30;9.65;;;3.40;99.90;;;;;;5022902;28;20188;-63
2024/02/27 01:34:47;;;;;;;18.05;9.75;;;3.40;99.90;;;;;;5022008;28;20195;-65
2024/02/27 01:37:13;;;;;;;19.88;10.63;;;3.40;99.90;;;;;;5022531;28;20194;-63
2024/02/27 01:39:39;;;;;;;19.92;10.82;;;3.40;99.90;;;;;;5022573;28;20257;-63
2024/02/27 01:42:05;;;;;;;25.77;11.15;;;3.40;99.90;;;;;;5022260;28;21665;-64
2024/02/27 01:44:31;;;;;;;19.42;10.18;;;3.40;99.90;;;;;;5022879;28;20285;-64
2024/02/27 01:46:59;;;;;;;24.52;11.63;;;3.40;99.90;;;;;;5022365;28;20192;-65
2024/02/27 01:49:28;;;;;;;32.28;12.13;;;3.40;99.90;;;;;;5022970;28;20188;-65
2024/02/27 01:51:55;;;;;;;26.42;11.38;;;3.30;99.90;;;;;;5022137;28;20188;-63
2024/02/27 01:54:26;;;;;;;22.85;12.10;;;3.30;99.90;;;;;;4991620;28;20188;-65
2024/02/27 01:56:53;;;;;;;28.77;12.65;;;3.30;99.90;;;;;;5022443;28;20188;-65
2024/02/27 01:59:22;;;;;;;24.88;12.57;;;3.30;99.90;;;;;;5022880;28;20207;-65
2024/02/27 02:01:50;;;;;;;25.88;12.18;;;3.30;99.90;;;;;;5021679;28;20222;-64
2024/02/27 02:04:17;;;;;;;28.98;12.40;;;3.30;99.90;;;;;;5022496;28;20205;-65
2024/02/27 02:06:42;;;;;;;28.88;12.68;;;3.30;99.90;;;;;;5022983;28;20196;-64
2024/02/27 02:09:08;;;;;;;27.50;12.88;;;3.20;99.90;;;;;;5022435;28;20310;-63
2024/02/27 02:11:34;;;;;;;29.45;13.27;;;3.30;99.90;;;;;;5021711;28;20187;-63
2024/02/27 02:14:02;;;;;;;27.02;13.43;;;3.30;99.90;;;;;;5021998;28;20184;-64
2024/02/27 02:16:27;;;;;;;30.98;14.20;;;3.30;99.90;;;;;;5021546;28;20195;-64
2024/02/27 02:18:53;;;;;;;31.52;12.40;;;3.30;99.90;;;;;;5021821;28;20203;-62
2024/02/27 02:21:19;;;;;;;36.47;13.73;;;3.30;99.90;;;;;;5033660;28;20208;-65
2024/02/27 02:23:45;;;;;;;34.53;13.40;;;3.30;99.90;;;;;;5021683;28;20192;-64
2024/02/27 02:26:12;;;;;;;27.33;13.50;;;3.30;99.90;;;;;;5021663;28;21281;-65
2024/02/27 02:28:38;;;;;;;27.50;14.48;;;3.30;99.90;;;;;;5021697;28;20200;-64
2024/02/27 02:31:04;;;;;;;27.08;12.88;;;3.30;99.90;;;;;;5021409;28;20198;-65
2024/02/27 02:33:29;;;;;;;32.83;13.27;;;3.30;99.90;;;;;;5021788;28;20497;-65
2024/02/27 02:35:55;;;;;;;24.45;13.30;;;3.30;99.90;;;;;;5021952;28;20192;-64
2024/02/27 02:38:21;;;;;;;26.20;13.95;;;3.30;99.90;;;;;;5022188;28;20706;-66
2024/02/27 02:40:47;;;;;;;34.30;13.65;;;3.30;99.90;;;;;;5021213;28;20274;-64
2024/02/27 02:43:13;;;;;;;30.70;13.98;;;3.30;99.90;;;;;;5021279;28;20228;-66
2024/02/27 02:45:40;;;;;;;27.85;13.77;;;3.30;99.90;;;;;;5021612;28;20219;-66
2024/02/27 02:48:07;;;;;;;29.60;14.40;;;3.30;99.90;;;;;;5021474;28;20554;-63
2024/02/27 02:50:33;;;;;;;32.53;14.65;;;3.30;99.90;;;;;;5021489;28;20195;-65
2024/02/27 02:52:59;;;;;;;30.50;14.35;;;3.30;99.90;;;;;;5021238;28;20188;-64
2024/02/27 02:55:25;;;;;;;29.35;13.38;;;3.30;99.90;;;;;;5021758;28;20206;-66
2024/02/27 02:57:51;;;;;;;31.98;14.20;;;3.30;99.90;;;;;;5021453;28;20184;-65
2024/02/27 03:00:18;;;;;;;29.88;13.60;;;3.20;99.90;;;;;;5021040;28;21011;-65
2024/02/27 03:02:43;;;;;;;31.05;14.15;;;3.20;99.90;;;;;;5021144;28;20258;-64
2024/02/27 03:05:12;;;;;;;34.08;15.23;;;3.30;99.90;;;;;;5020820;28;20223;-65
2024/02/27 03:07:41;;;;;;;32.67;13.68;;;3.20;99.90;;;;;;5021759;28;20307;-71
2024/02/27 03:10:08;;;;;;;26.88;13.27;;;3.20;99.90;;;;;;5020158;28;20762;-66
2024/02/27 03:12:44;;;;;;;41.55;14.65;;;3.20;99.90;;;;;;5021691;28;20224;-65
2024/02/27 03:15:10;;;;;;;33.60;14.23;;;3.20;99.90;;;;;;5021575;28;20743;-71
2024/02/27 03:17:36;;;;;;;25.98;13.93;;;3.20;99.90;;;;;;5020874;28;20294;-70
2024/02/27 03:20:05;;;;;;;31.42;14.63;;;3.20;99.90;;;;;;5020478;28;20286;-68
2024/02/27 03:22:31;;;;;;;32.03;14.30;;;3.20;99.90;;;;;;5020406;28;20222;-66
2024/02/27 03:24:59;;;;;;;32.08;12.88;;;3.20;99.90;;;;;;5023439;28;20219;-64
2024/02/27 03:27:25;;;;;;;32.05;14.45;;;3.20;99.90;;;;;;5025479;28;20648;-65
2024/02/27 03:29:51;;;;;;;27.98;13.10;;;3.10;99.90;;;;;;5024632;28;20253;-67
2024/02/27 03:32:17;;;;;;;27.75;13.00;;;3.20;99.90;;;;;;5025268;28;20187;-65
2024/02/27 03:34:42;;;;;;;24.20;12.05;;;3.20;99.90;;;;;;5024692;28;20667;-65
2024/02/27 03:37:08;;;;;;;27.15;12.32;;;3.20;99.90;;;;;;5025161;28;20188;-64
2024/02/27 03:39:34;;;;;;;24.92;11.32;;;3.20;99.90;;;;;;5024878;28;20211;-66
2024/02/27 03:41:59;;;;;;;25.52;11.23;;;3.20;99.90;;;;;;5024748;28;20218;-64
2024/02/27 03:44:25;;;;;;;23.42;11.07;;;3.20;99.90;;;;;;5023384;28;20265;-65
2024/02/27 03:46:51;;;;;;;30.90;10.88;;;3.20;99.90;;;;;;5025183;28;20198;-65
2024/02/27 03:49:17;;;;;;;25.13;11.10;;;3.20;99.90;;;;;;5024709;28;20196;-65
2024/02/27 03:51:42;;;;;;;22.80;11.23;;;3.20;99.90;;;;;;5024907;28;20188;-66
2024/02/27 03:54:08;;;;;;;27.33;11.15;;;3.20;99.90;;;;;;5023399;28;20188;-66
2024/02/27 03:56:34;;;;;;;20.48;10.07;;;3.20;99.90;;;;;;5024981;28;20196;-66
2024/02/27 03:58:59;;;;;;;23.90;10.95;;;3.20;99.90;;;;;;5023861;28;20210;-65
2024/02/27 04:01:26;;;;;;;23.25;10.82;;;3.20;99.90;;;;;;5024267;28;20192;-64
2024/02/27 04:03:52;;;;;;;26.15;9.82;;;3.20;99.90;;;;;;5024568;28;20192;-66
2024/02/27 04:06:18;;;;;;;21.00;10.02;;;3.20;99.90;;;;;;5024190;28;20212;-66
2024/02/27 04:08:43;;;;;;;21.25;9.35;;;3.20;99.90;;;;;;5024591;28;20712;-63
2024/02/27 04:11:10;;;;;;;19.25;9.43;;;3.20;99.90;;;;;;5024130;28;20215;-64
2024/02/27 04:13:35;;;;;;;22.13;8.85;;;3.20;99.90;;;;;;5024519;28;20192;-69
2024/02/27 04:16:02;;;;;;;22.83;9.07;;;3.20;99.90;;;;;;5024268;28;20564;-66
2024/02/27 04:18:28;;;;;;;18.73;8.65;;;3.20;99.90;;;;;;5023990;28;20207;-65
2024/02/27 04:20:53;;;;;;;23.30;8.27;;;3.20;99.90;;;;;;5024018;28;20707;-64
2024/02/27 04:23:19;;;;;;;19.85;8.07;;;3.20;99.90;;;;;;5024314;28;20297;-63
2024/02/27 04:25:45;;;;;;;25.30;9.27;;;3.20;99.90;;;;;;5024222;28;20680;-63
2024/02/27 04:28:11;;;;;;;16.77;7.38;;;3.20;99.90;;;;;;5039186;28;20204;-64
2024/02/27 04:30:37;;;;;;;19.23;8.02;;;3.20;99.90;;;;;;5023765;28;20188;-64
2024/02/27 04:33:03;;;;;;;19.05;8.02;;;3.20;99.90;;;;;;5024006;28;20347;-63
2024/02/27 04:35:29;;;;;;;16.10;7.55;;;3.20;99.90;;;;;;5023817;28;20278;-64
2024/02/27 04:37:55;;;;;;;17.35;7.95;;;3.20;99.90;;;;;;5022090;28;20705;-64
2024/02/27 04:40:21;;;;;;;16.10;7.60;;;3.20;99.90;;;;;;5023224;28;20209;-61
2024/02/27 04:42:47;;;;;;;16.05;7.68;;;3.20;99.90;;;;;;5023563;28;20250;-64
2024/02/27 04:45:12;;;;;;;14.38;8.15;;;3.20;99.90;;;;;;5023530;28;20270;-64
2024/02/27 04:47:38;;;;;;;15.98;7.75;;;3.20;99.90;;;;;;5023991;28;20319;-64
2024/02/27 04:50:04;;;;;;;18.35;7.63;;;3.20;99.90;;;;;;5023143;28;20279;-64
2024/02/27 04:52:30;;;;;;;22.92;8.55;;;3.20;99.90;;;;;;5023089;28;20196;-63
2024/02/27 04:54:56;;;;;;;19.60;7.90;;;3.20;99.90;;;;;;5023418;28;20305;-64
2024/02/27 04:57:21;;;;;;;18.05;7.80;;;3.20;99.90;;;;;;5023358;28;20192;-65
2024/02/27 04:59:47;;;;;;;19.83;8.32;;;3.20;99.90;;;;;;5022997;28;20281;-67
2024/02/27 05:02:13;;;;;;;17.92;8.52;;;3.20;99.90;;;;;;5021668;28;20270;-65
2024/02/27 05:04:39;;;;;;;16.95;8.80;;;3.20;99.90;;;;;;5023120;28;20222;-66
2024/02/27 05:07:05;;;;;;;17.67;8.35;;;3.20;99.90;;;;;;5023076;28;20192;-65
2024/02/27 05:09:31;;;;;;;18.33;8.40;;;3.20;99.90;;;;;;5022192;28;20197;-65
2024/02/27 05:11:56;;;;;;;18.15;8.20;;;3.20;99.90;;;;;;5022316;28;20298;-71
2024/02/27 05:14:22;;;;;;;20.45;9.23;;;3.30;99.90;;;;;;5038221;28;20180;-69
2024/02/27 05:16:48;;;;;;;16.65;8.82;;;3.40;99.90;;;;;;5023225;28;20184;-68
2024/02/27 05:19:13;;;;;;;15.77;8.93;;;3.50;99.90;;;;;;5022395;28;20184;-69
2024/02/27 05:21:39;;;;;;;24.00;9.18;;;3.60;99.90;;;;;;5009203;28;20184;-67
2024/02/27 05:24:06;;;;;;;23.38;9.27;;;3.60;99.90;;;;;;5021286;28;20299;-67
2024/02/27 05:26:32;;;;;;;18.15;8.57;;;3.60;99.90;;;;;;5022281;28;20223;-67
2024/02/27 05:28:58;;;;;;;14.73;9.07;;;3.60;99.90;;;;;;5022951;28;20207;-69
2024/02/27 05:31:29;;;;;;;15.65;9.13;;;3.70;99.90;;;;;;5021896;28;20655;-67
2024/02/27 05:33:57;;;;;;;15.35;9.00;;;3.70;99.90;;;;;;5021415;28;20651;-66
2024/02/27 05:36:23;;;;;;;18.98;9.43;;;3.80;99.90;;;;;;5022176;28;20180;-68
2024/02/27 05:38:55;;;;;;;20.83;9.48;;;3.80;99.90;;;;;;5022460;28;22297;-66
2024/02/27 05:41:22;;;;;;;19.13;9.25;;;3.90;99.90;;;;;;5019463;28;20208;-66
2024/02/27 05:43:49;;;;;;;23.08;8.93;;;3.90;99.90;;;;;;5022148;28;20232;-65
2024/02/27 05:46:14;;;;;;;18.20;9.02;;;4.00;99.90;;;;;;5022385;28;20759;-64
2024/02/27 05:48:41;;;;;;;14.35;9.18;;;4.00;99.90;;;;;;5022065;28;20187;-66
2024/02/27 05:51:08;;;;;;;15.70;9.40;;;4.10;99.90;;;;;;5035923;28;20437;-68
2024/02/27 05:53:34;;;;;;;19.75;9.38;;;4.10;99.90;;;;;;5022293;28;20218;-64
2024/02/27 05:56:00;;;;;;;19.75;8.90;;;4.20;99.90;;;;;;5022198;28;20224;-68
2024/02/27 05:58:26;;;;;;;18.08;9.10;;;4.20;99.90;;;;;;5021474;28;20796;-67
2024/02/27 06:00:54;;;;;;;21.15;8.85;;;4.20;99.90;;;;;;5034433;28;20219;-66
2024/02/27 06:03:20;;;;;;;23.15;12.80;;;4.20;99.90;;;;;;5037779;28;20200;-65
2024/02/27 06:05:47;;;;;;;20.33;10.95;;;4.20;99.90;;;;;;5021825;28;20219;-66
2024/02/27 06:08:13;;;;;;;23.40;12.60;;;4.20;99.90;;;;;;5022122;28;20269;-68
2024/02/27 06:10:40;;;;;;;22.17;10.95;;;4.10;99.90;;;;;;5021782;28;20589;-63
2024/02/27 06:13:07;;;;;;;18.90;10.15;;;4.10;99.90;;;;;;5021809;28;20567;-65
2024/02/27 06:15:33;;;;;;;18.27;10.65;;;4.10;99.90;;;;;;5021399;28;20242;-65
2024/02/27 06:17:59;;;;;;;20.50;11.30;;;4.10;99.90;;;;;;5021964;28;20221;-64
2024/02/27 06:23:10;;;;;;;20.38;10.85;;;4.20;99.90;;;;;;5021977;28;20230;-64
2024/02/27 06:25:35;;;;;;;19.75;10.95;;;4.20;99.90;;;;;;5009101;28;20215;-63
2024/02/27 06:28:01;;;;;;;20.05;10.95;;;4.30;99.90;;;;;;5021083;28;20184;-64
2024/02/27 06:30:27;;;;;;;24.33;12.05;;;4.30;99.90;;;;;;5036521;28;20192;-65
2024/02/27 06:32:53;;;;;;;23.00;11.57;;;4.30;99.90;;;;;;5020154;28;20303;-69
2024/02/27 06:35:19;;;;;;;22.88;11.75;;;4.30;99.90;;;;;;5036719;28;20200;-67
2024/02/27 06:37:45;;;;;;;19.67;11.20;;;4.40;99.90;;;;;;5019372;28;20254;-69
2024/02/27 06:40:11;;;;;;;26.50;11.60;;;4.50;99.90;;;;;;5029395;28;20440;-67
2024/02/27 06:42:37;;;;;;;21.02;11.05;;;4.50;99.90;;;;;;5021067;28;20550;-66
2024/02/27 06:45:06;;;;;;;23.38;11.55;;;4.50;99.90;;;;;;5019947;28;20235;-67
2024/02/27 06:47:32;;;;;;;20.50;11.32;;;4.50;99.90;;;;;;5021305;28;20186;-66
2024/02/27 06:49:59;;;;;;;20.75;11.90;;;4.50;99.90;;;;;;5021158;28;20176;-68
2024/02/27 06:52:27;;;;;;;26.65;12.40;;;4.50;99.90;;;;;;5019967;28;20196;-66
2024/02/27 06:54:53;;;;;;;28.23;13.00;;;4.50;99.90;;;;;;5021175;28;20227;-65
2024/02/27 06:57:19;;;;;;;23.38;12.13;;;4.60;99.90;;;;;;5021462;28;20654;-68
2024/02/27 06:59:45;;;;;;;22.30;11.90;;;4.60;99.90;;;;;;5019470;28;20200;-67
2024/02/27 07:02:11;;;;;;;20.52;11.95;;;4.60;99.90;;;;;;5020834;28;20263;-66
2024/02/27 07:04:37;;;;;;;20.00;11.82;;;4.60;99.90;;;;;;5020673;28;20253;-67
2024/02/27 07:07:04;;;;;;;26.25;14.43;;;4.60;99.90;;;;;;5019058;28;20433;-67
2024/02/27 07:09:30;;;;;;;26.02;12.25;;;4.60;99.90;;;;;;5020535;28;20739;-67
2024/02/27 07:12:00;;;;;;;18.23;12.35;;;4.60;99.90;;;;;;5020249;28;20539;-68
2024/02/27 07:14:27;;;;;;;20.67;12.90;;;4.60;99.90;;;;;;5019090;28;20246;-68
2024/02/27 07:16:56;;;;;;;23.98;14.70;;;4.60;99.90;;;;;;5020460;28;20833;-67
2024/02/27 07:19:22;;;;;;;28.98;12.40;;;4.60;99.90;;;;;;5020246;28;20191;-66
2024/02/27 07:21:48;;;;;;;19.52;12.50;;;4.70;99.90;;;;;;5019605;28;20179;-68
2024/02/27 07:24:17;;;;;;;24.48;13.02;;;4.70;99.90;;;;;;5020630;28;20191;-68
2024/02/27 07:26:43;;;;;;;23.95;12.80;;;4.70;99.90;;;;;;5035211;28;20269;-67
2024/02/27 07:29:10;;;;;;;21.10;12.57;;;4.70;99.90;;;;;;5035509;28;20196;-68
2024/02/27 07:31:36;;;;;;;26.13;13.43;;;4.80;99.90;;;;;;5020996;28;20199;-67
2024/02/27 07:34:03;;;;;;;25.00;13.40;;;4.80;99.90;;;;;;5018860;28;20192;-66
2024/02/27 07:36:29;;;;;;;22.35;13.25;;;4.90;99.90;;;;;;5019901;28;20794;-68
2024/02/27 07:38:55;;;;;;;24.60;13.15;;;5.00;99.90;;;;;;5033031;28;20195;-68
2024/02/27 07:41:20;;;;;;;23.02;13.82;;;5.00;99.90;;;;;;5018342;28;20278;-68
2024/02/27 07:43:46;;;;;;;26.10;16.40;;;5.00;99.90;;;;;;5020447;28;20227;-67
2024/02/27 07:46:15;;;;;;;28.65;16.10;;;5.10;99.90;;;;;;5020289;28;20215;-69
2024/02/27 07:48:43;;;;;;;24.20;12.98;;;5.20;99.90;;;;;;5020335;28;20192;-68
2024/02/27 07:51:29;;;;;;;25.25;13.23;;;5.30;99.90;;;;;;5020606;28;20593;-67
2024/02/27 07:53:55;;;;;;;27.40;13.75;;;5.40;99.90;;;;;;5020380;28;20188;-70
2024/02/27 07:56:20;;;;;;;21.38;13.40;;;5.40;99.90;;;;;;5020130;28;20199;-68
2024/02/27 07:58:46;;;;;;;22.83;13.35;;;5.50;99.90;;;;;;5020329;28;20200;-67
2024/02/27 08:01:12;;;;;;;23.77;13.25;;;5.60;99.90;;;;;;5035880;28;20241;-66
2024/02/27 08:03:37;;;;;;;23.08;14.00;;;5.70;99.90;;;;;;5020447;28;20585;-66
2024/02/27 08:06:06;;;;;;;23.27;12.98;;;5.70;99.90;;;;;;5019882;28;20223;-67
2024/02/27 08:08:31;;;;;;;25.25;12.73;;;5.80;99.90;;;;;;5020342;28;20242;-67
2024/02/27 08:10:57;;;;;;;26.10;13.20;;;5.90;99.90;;;;;;5037411;28;20200;-68
2024/02/27 08:13:23;;;;;;;34.22;12.35;;;6.00;99.90;;;;;;5024132;28;20279;-67
2024/02/27 08:15:49;;;;;;;21.35;11.93;;;6.00;99.90;;;;;;5039036;28;20187;-66
2024/02/27 08:18:15;;;;;;;21.98;11.95;;;6.10;99.90;;;;;;5024137;28;20210;-68
2024/02/27 08:20:41;;;;;;;21.30;11.85;;;6.10;99.90;;;;;;5038252;28;20200;-66
2024/02/27 08:23:11;;;;;;;19.83;11.00;;;6.20;99.90;;;;;;5023641;28;20279;-65
2024/02/27 08:25:37;;;;;;;18.30;11.45;;;6.20;99.90;;;;;;5022272;28;20219;-64
2024/02/27 08:28:04;;;;;;;22.92;12.25;;;6.30;99.90;;;;;;5023603;28;20179;-70
2024/02/27 08:30:30;;;;;;;21.27;10.68;;;6.40;99.90;;;;;;5023662;28;20188;-63
2024/02/27 08:32:56;;;;;;;21.48;11.55;;;6.40;99.90;;;;;;5023048;28;20652;-67
2024/02/27 08:35:22;;;;;;;17.70;11.63;;;6.50;99.90;;;;;;5018815;28;20222;-68
2024/02/27 08:37:48;;;;;;;20.33;11.48;;;6.60;99.90;;;;;;5024169;28;20184;-64
2024/02/27 08:40:13;;;;;;;22.00;11.85;;;6.60;99.90;;;;;;5023319;28;20192;-62
2024/02/27 08:42:42;;;;;;;18.88;11.48;;;6.60;99.90;;;;;;5038592;28;20694;-65
2024/02/27 08:45:09;;;;;;;17.33;10.95;;;6.60;99.90;;;;;;5023871;28;20262;-65
2024/02/27 08:47:35;;;;;;;23.63;11.52;;;6.60;99.90;;;;;;5023116;28;20188;-65
2024/02/27 08:50:03;;;;;;;19.10;11.85;;;6.60;99.90;;;;;;5022977;28;20203;-66
2024/02/27 08:52:29;;;;;;;20.75;11.98;;;6.60;99.90;;;;;;5022688;28;20537;-65
2024/02/27 08:54:55;;;;;;;21.92;12.52;;;6.60;99.90;;;;;;5023224;28;20195;-67
2024/02/27 08:57:21;;;;;;;19.00;11.82;;;6.60;99.90;;;;;;5023023;28;20199;-66
2024/02/27 08:59:47;;;;;;;19.35;12.20;;;6.70;99.90;;;;;;5023247;28;20192;-66
2024/02/27 09:02:14;;;;;;;22.63;12.02;;;6.70;99.90;;;;;;5022900;28;20277;-65
2024/02/27 09:04:40;;;;;;;16.10;11.93;;;6.70;99.90;;;;;;5021560;28;20257;-67
2024/02/27 09:07:05;;;;;;;17.05;12.27;;;6.70;99.90;;;;;;5000479;28;20231;-62
2024/02/27 09:09:31;;;;;;;22.73;14.10;;;6.70;99.90;;;;;;5029985;28;20238;-65
2024/02/27 09:11:57;;;;;;;17.27;11.90;;;6.70;99.90;;;;;;5034240;28;20196;-64
2024/02/27 09:14:23;;;;;;;18.20;11.27;;;6.80;99.90;;;;;;5022870;28;20180;-65
2024/02/27 09:16:49;;;;;;;19.33;11.80;;;6.80;99.90;;;;;;5038278;28;20180;-65
2024/02/27 09:19:15;;;;;;;14.93;11.43;;;6.80;99.90;;;;;;5022939;28;20261;-65
2024/02/27 09:21:44;;;;;;;20.85;11.95;;;6.80;99.90;;;;;;5036059;28;20646;-67
2024/02/27 09:24:10;;;;;;;18.52;12.05;;;6.80;99.90;;;;;;5035914;28;20211;-64
2024/02/27 09:26:36;;;;;;;17.55;11.45;;;6.80;99.90;;;;;;5022596;28;20212;-63
2024/02/27 09:29:02;;;;;;;18.65;12.25;;;6.70;99.90;;;;;;5022849;28;20184;-64
2024/02/27 09:31:28;;;;;;;17.55;12.40;;;6.70;99.90;;;;;;5035096;28;20188;-64
2024/02/27 09:33:54;;;;;;;20.25;12.52;;;6.70;99.90;;;;;;5022591;28;20188;-65
2024/02/27 09:36:19;;;;;;;19.00;12.57;;;6.70;99.90;;;;;;5022909;28;20191;-66
2024/02/27 09:38:45;;;;;;;23.70;12.80;;;6.60;99.90;;;;;;5037324;28;20652;-66
2024/02/27 09:41:27;;;;;;;22.08;12.68;;;6.60;99.90;;;;;;5037495;28;20214;-64
2024/02/27 09:43:55;;;;;;;17.65;12.10;;;6.70;99.90;;;;;;5022366;28;20223;-66
2024/02/27 09:46:25;;;;;;;17.52;12.02;;;6.70;99.90;;;;;;5021899;28;20220;-65
2024/02/27 09:48:52;;;;;;;21.17;12.25;;;6.80;99.90;;;;;;5022422;28;20196;-64
2024/02/27 09:51:20;;;;;;;15.07;11.63;;;6.90;99.90;;;;;;5021967;28;20192;-64
2024/02/27 09:53:48;;;;;;;16.50;11.70;;;7.00;99.90;;;;;;5020757;28;20266;-65
2024/02/27 09:56:15;;;;;;;15.00;11.52;;;7.10;99.90;;;;;;5022325;28;20196;-64
2024/02/27 09:58:45;;;;;;;15.20;11.43;;;7.20;99.90;;;;;;5035762;28;20200;-65
2024/02/27 10:01:13;;;;;;;28.77;16.15;;;7.40;99.90;;;;;;5021847;28;20561;-64
2024/02/27 10:03:43;;;;;;;18.45;12.95;;;7.40;99.90;;;;;;5021343;28;20701;-65
2024/02/27 10:06:13;;;;;;;15.57;11.50;;;7.60;99.90;;;;;;5022111;28;20223;-64
2024/02/27 10:08:43;;;;;;;14.63;11.38;;;7.70;99.90;;;;;;5020745;28;20192;-65
2024/02/27 10:11:09;;;;;;;16.42;11.55;;;7.80;99.90;;;;;;5036962;28;20184;-65
2024/02/27 10:13:34;;;;;;;16.50;12.00;;;7.80;99.90;;;;;;5021455;28;20187;-64
2024/02/27 10:16:00;;;;;;;16.02;12.10;;;7.90;99.90;;;;;;5007520;28;20192;-65
2024/02/27 10:18:26;;;;;;;15.50;11.52;;;8.00;99.90;;;;;;5021839;28;20226;-62
2024/02/27 10:20:52;;;;;;;14.70;10.85;;;8.10;99.90;;;;;;5021792;28;20204;-64
2024/02/27 10:23:17;;;;;;;17.42;11.32;;;8.10;99.90;;;;;;5021476;28;20204;-65
2024/02/27 10:25:44;;;;;;;17.90;11.02;;;8.20;99.90;;;;;;5035944;28;20211;-64
2024/02/27 10:28:10;;;;;;;15.73;11.30;;;8.30;99.90;;;;;;5021167;28;20187;-65
2024/02/27 10:30:36;;;;;;;16.80;11.32;;;8.40;99.90;;;;;;5021429;28;20279;-65
2024/02/27 10:33:02;;;;;;;16.27;11.10;;;8.40;99.90;;;;;;5021059;28;20192;-64
2024/02/27 10:35:27;;;;;;;16.95;11.10;;;8.40;99.90;;;;;;5021641;28;20556;-65
2024/02/27 10:37:53;;;;;;;19.42;11.38;;;8.50;99.90;;;;;;5021554;28;20184;-64
2024/02/27 10:40:19;;;;;;;14.23;10.95;;;8.50;99.90;;;;;;5021412;28;20774;-66
2024/02/27 10:42:45;;;;;;;15.88;11.45;;;8.60;99.90;;;;;;5021243;28;20199;-65
2024/02/27 10:45:11;;;;;;;15.07;11.15;;;8.70;99.90;;;;;;5020898;28;20242;-64
2024/02/27 10:47:37;;;;;;;16.13;11.90;;;8.70;99.90;;;;;;5021362;28;20188;-65
2024/02/27 10:50:05;;;;;;;14.70;11.23;;;8.70;99.90;;;;;;5021471;28;20203;-68
2024/02/27 10:52:34;;;;;;;13.40;10.70;;;8.80;99.90;;;;;;5020710;28;20199;-64
2024/02/27 10:55:01;;;;;;;16.00;10.63;;;8.80;99.90;;;;;;5021694;28;20655;-65
2024/02/27 10:57:27;;;;;;;14.00;10.13;;;8.90;99.90;;;;;;5020552;28;20654;-65
2024/02/27 10:59:54;;;;;;;17.15;10.07;;;9.00;99.90;;;;;;5036709;28;20199;-64
2024/02/27 11:02:20;;;;;;;15.77;10.85;;;9.00;99.90;;;;;;5019291;28;20256;-66
2024/02/27 11:04:49;;;;;;;15.02;11.10;;;9.20;99.90;;;;;;5020838;28;20188;-64
2024/02/27 11:07:17;;;;;;;14.75;11.02;;;9.20;99.90;;;;;;5020943;28;20222;-65
2024/02/27 11:09:49;;;;;;;14.02;11.15;;;9.20;99.90;;;;;;5020992;28;20291;-64
2024/02/27 11:12:16;;;;;;;14.80;10.98;;;9.30;99.90;;;;;;5020605;28;20252;-64
2024/02/27 11:14:45;;;;;;;16.08;11.43;;;9.30;99.90;;;;;;5020412;28;20211;-64
2024/02/27 11:17:20;;;;;;;14.57;11.13;;;9.20;99.90;;;;;;5020368;28;20632;-64
2024/02/27 11:19:49;;;;;;;18.73;11.82;;;9.20;99.90;;;;;;5035454;28;20187;-65
2024/02/27 11:22:22;;;;;;;16.42;11.88;;;9.20;99.90;;;;;;5017989;28;20317;-64
2024/02/27 11:24:48;;;;;;;17.48;12.10;;;9.30;99.90;;;;;;5020799;28;20269;-66
2024/02/27 11:27:24;;;;;;;16.35;11.65;;;9.40;99.90;;;;;;5021517;28;20270;-65
2024/02/27 11:29:51;;;;;;;14.82;11.57;;;9.40;99.90;;;;;;5020554;28;20188;-65
2024/02/27 11:32:19;;;;;;;14.00;11.13;;;9.40;99.90;;;;;;5020438;28;20683;-65
2024/02/27 11:34:47;;;;;;;14.63;11.35;;;9.30;99.90;;;;;;5020614;28;20516;-64
2024/02/27 11:37:19;;;;;;;13.18;10.65;;;9.30;99.90;;;;;;5020240;28;20210;-64
2024/02/27 11:39:45;;;;;;;13.38;9.77;;;9.30;99.90;;;;;;5021061;28;20600;-66
2024/02/27 11:42:24;;;;;;;13.88;11.15;;;9.30;99.90;;;;;;5019813;28;20200;-65
2024/02/27 11:45:03;;;;;;;15.40;12.23;;;9.20;99.90;;;;;;5021158;28;20231;-64
2024/02/27 11:47:33;;;;;;;16.48;11.52;;;9.30;99.90;;;;;;5023455;28;20274;-64
2024/02/27 11:49:59;;;;;;;18.27;13.63;;;9.30;99.90;;;;;;5024891;28;20203;-67
2024/02/27 11:52:27;;;;;;;13.27;11.88;;;9.30;99.90;;;;;;5023966;28;20192;-66
2024/02/27 11:54:56;;;;;;;16.92;11.57;;;9.40;99.90;;;;;;5023857;28;20585;-64
2024/02/27 11:57:22;;;;;;;24.17;12.85;;;9.40;99.90;;;;;;5024238;28;20196;-64
2024/02/27 11:59:48;;;;;;;15.73;11.63;;;9.40;99.90;;;;;;5024478;28;20706;-65
2024/02/27 12:02:18;;;;;;;17.42;12.57;;;9.60;99.90;;;;;;5024635;28;20196;-66
2024/02/27 12:04:44;;;;;;;15.30;12.85;;;9.60;99.90;;;;;;5024367;28;20176;-64
2024/02/27 12:07:10;;;;;;;14.73;12.25;;;9.70;99.90;;;;;;5024620;28;20658;-66
2024/02/27 12:09:35;;;;;;;13.02;11.27;;;9.70;99.90;;;;;;5024467;28;20218;-66
2024/02/27 12:12:02;;;;;;;13.18;11.32;;;9.80;99.90;;;;;;5023884;28;20227;-66
2024/02/27 12:14:28;;;;;;;17.30;12.30;;;9.80;99.90;;;;;;5023899;28;20188;-63
2024/02/27 12:16:53;;;;;;;15.75;11.55;;;9.80;99.90;;;;;;5024485;28;20196;-65
2024/02/27 12:19:19;;;;;;;16.13;12.27;;;9.80;99.90;;;;;;5024290;28;20199;-65
2024/02/27 12:21:45;;;;;;;16.10;12.63;;;9.80;99.90;;;;;;5023649;28;20195;-65
2024/02/27 12:24:19;;;;;;;17.75;12.07;;;9.80;99.90;;;;;;5006537;28;20311;-66
2024/02/27 12:26:46;;;;;;;17.48;12.45;;;9.70;99.90;;;;;;5023754;28;20599;-65
2024/02/27 12:29:14;;;;;;;20.20;12.07;;;9.70;99.90;;;;;;5023751;28;20194;-66
2024/02/27 12:31:41;;;;;;;15.13;11.65;;;9.70;99.90;;;;;;5023670;28;20206;-65
2024/02/27 12:34:07;;;;;;;15.45;11.95;;;9.60;99.90;;;;;;5024101;28;20641;-64
2024/02/27 12:36:33;;;;;;;17.42;11.50;;;9.70;99.90;;;;;;5023763;28;20226;-65
2024/02/27 12:38:59;;;;;;;12.60;10.68;;;9.70;99.90;;;;;;5022412;28;20196;-65
2024/02/27 12:41:25;;;;;;;17.05;11.57;;;9.80;99.90;;;;;;5022790;28;20242;-64